Time;durP1;ratioP1;P1;durP2;ratioP2;P2;SDS_P1;SDS_P2;PMS_P1;PMS_P2;Temp;Humidity;BMP_temperature;BMP_pressure;BME280_temperature;BME280_humidity;BME280_pressure;Samples;Min_cycle;Max_cycle;Signal;HPM_P1;HPM_P2
2024/04/16 00:00:02;;;;;;;6.27;2.60;;;6.60;1.00;;;;;;5452269;26;20273;-68
2024/04/16 00:02:32;;;;;;;4.93;1.90;;;6.60;1.00;;;;;;5451632;26;20287;-68
2024/04/16 00:05:00;;;;;;;4.90;2.13;;;6.70;1.00;;;;;;5464170;25;20268;-68
2024/04/16 00:07:30;;;;;;;4.83;1.90;;;6.80;1.00;;;;;;5454549;26;20264;-68
2024/04/16 00:09:58;;;;;;;6.53;1.87;;;6.80;1.00;;;;;;5460185;25;20417;-68
2024/04/16 00:12:31;;;;;;;7.33;2.00;;;6.80;1.00;;;;;;5451254;26;20806;-68
2024/04/16 00:14:58;;;;;;;7.67;2.10;;;6.90;1.00;;;;;;5453534;25;20308;-68
2024/04/16 00:17:28;;;;;;;9.17;1.97;;;6.90;1.00;;;;;;5450124;26;21038;-68
2024/04/16 00:19:56;;;;;;;3.73;2.07;;;7.00;1.00;;;;;;5453967;26;20329;-68
2024/04/16 00:22:26;;;;;;;7.63;2.33;;;6.90;1.00;;;;;;5454087;26;20301;-68
2024/04/16 00:24:53;;;;;;;6.57;2.07;;;6.90;1.00;;;;;;5450335;25;20791;-68
2024/04/16 00:27:23;;;;;;;8.03;2.30;;;6.90;1.00;;;;;;5456858;25;20408;-68
2024/04/16 00:29:54;;;;;;;7.77;1.90;;;7.00;1.00;;;;;;5461562;26;20261;-68
2024/04/16 00:32:24;;;;;;;7.53;2.00;;;7.00;1.00;;;;;;5452005;26;20365;-68
2024/04/16 00:34:52;;;;;;;7.80;2.37;;;7.10;1.00;;;;;;5443390;26;20685;-68
2024/04/16 00:37:22;;;;;;;7.60;2.33;;;7.10;1.00;;;;;;5453028;26;20732;-68
2024/04/16 00:39:50;;;;;;;8.67;2.00;;;7.10;1.00;;;;;;5452058;26;20246;-68
2024/04/16 00:42:21;;;;;;;7.17;2.60;;;7.00;1.00;;;;;;5452451;26;20260;-68
2024/04/16 00:44:49;;;;;;;5.90;2.30;;;7.00;1.00;;;;;;5452818;26;20256;-68
2024/04/16 00:47:22;;;;;;;5.70;2.00;;;7.00;1.00;;;;;;5444284;26;20634;-68
2024/04/16 00:49:51;;;;;;;11.83;2.13;;;7.10;1.00;;;;;;5442281;26;20359;-68
2024/04/16 00:52:21;;;;;;;3.53;1.67;;;7.10;1.00;;;;;;5456256;26;20783;-68
2024/04/16 00:54:49;;;;;;;7.03;2.30;;;7.20;1.00;;;;;;5451018;26;20253;-68
2024/04/16 00:57:19;;;;;;;5.37;2.27;;;7.20;1.00;;;;;;5454278;25;21015;-68
2024/04/16 00:59:48;;;;;;;7.30;2.23;;;7.20;1.00;;;;;;5449064;26;20252;-68
2024/04/16 01:02:18;;;;;;;9.57;2.10;;;7.20;1.00;;;;;;5448642;26;20288;-68
2024/04/16 01:04:48;;;;;;;8.13;2.10;;;7.20;1.00;;;;;;5442322;26;20334;-68
2024/04/16 01:07:19;;;;;;;6.20;2.30;;;7.30;1.00;;;;;;5451932;26;20616;-68
2024/04/16 01:09:46;;;;;;;7.70;2.20;;;7.30;1.00;;;;;;5445273;26;21078;-68
2024/04/16 01:12:16;;;;;;;5.13;2.10;;;7.30;1.00;;;;;;5450776;26;20325;-68
2024/04/16 01:14:44;;;;;;;6.60;2.57;;;7.40;1.00;;;;;;5454448;26;20248;-68
2024/04/16 01:17:14;;;;;;;7.13;2.23;;;7.50;1.00;;;;;;5454219;26;20306;-68
2024/04/16 01:19:41;;;;;;;5.63;2.13;;;7.50;1.00;;;;;;5443301;26;20345;-67
2024/04/16 01:22:17;;;;;;;4.87;2.00;;;7.50;1.00;;;;;;5449181;26;20253;-68
2024/04/16 01:24:47;;;;;;;6.17;2.37;;;7.50;1.00;;;;;;5452343;26;20248;-68
2024/04/16 01:27:21;;;;;;;5.73;2.23;;;7.50;1.00;;;;;;5455274;26;20261;-68
2024/04/16 01:29:48;;;;;;;7.70;2.23;;;7.50;1.00;;;;;;5456695;26;20287;-68
2024/04/16 01:32:18;;;;;;;6.77;2.53;;;7.50;1.00;;;;;;5449531;26;20293;-68
2024/04/16 01:34:46;;;;;;;8.37;2.03;;;7.50;1.00;;;;;;5447063;26;20280;-68
2024/04/16 01:37:16;;;;;;;5.20;2.50;;;7.60;1.00;;;;;;5449269;26;20241;-68
2024/04/16 01:39:44;;;;;;;6.47;1.90;;;7.60;1.00;;;;;;5444932;26;20258;-67
2024/04/16 01:42:16;;;;;;;5.50;2.87;;;7.50;1.00;;;;;;5455271;26;20249;-67
2024/04/16 01:44:45;;;;;;;4.30;2.00;;;7.50;1.00;;;;;;5452848;26;20587;-67
2024/04/16 01:47:15;;;;;;;7.53;2.67;;;7.50;1.00;;;;;;5446032;26;20773;-67
2024/04/16 01:49:43;;;;;;;7.73;2.20;;;7.40;1.00;;;;;;5448076;26;20245;-67
2024/04/16 01:52:13;;;;;;;6.43;2.43;;;7.40;1.00;;;;;;5453375;26;20640;-67
2024/04/16 01:54:41;;;;;;;6.87;2.40;;;7.40;14.60;;;;;;5439536;26;20252;-67
2024/04/16 01:57:11;;;;;;;7.17;2.10;;;7.30;35.00;;;;;;5445462;25;20250;-67
2024/04/16 01:59:41;;;;;;;5.03;2.20;;;7.20;51.70;;;;;;5448415;26;20248;-67
2024/04/16 02:02:11;;;;;;;8.80;2.40;;;7.20;81.80;;;;;;5444578;25;20256;-66
2024/04/16 02:04:39;;;;;;;6.57;2.60;;;7.20;99.90;;;;;;5446472;26;20244;-65
2024/04/16 02:07:09;;;;;;;4.27;2.37;;;7.10;99.90;;;;;;5447481;26;20241;-65
2024/04/16 02:09:36;;;;;;;4.43;1.60;;;6.80;99.90;;;;;;5452110;25;20261;-65
2024/04/16 02:12:09;;;;;;;5.43;2.10;;;6.60;99.90;;;;;;5440695;26;20375;-66
2024/04/16 02:14:36;;;;;;;5.87;2.20;;;6.50;99.90;;;;;;5453159;26;20758;-66
2024/04/16 02:17:09;;;;;;;5.30;2.10;;;6.40;99.90;;;;;;5442899;26;20262;-66
2024/04/16 02:19:36;;;;;;;2.50;1.90;;;6.40;99.90;;;;;;5456991;26;20240;-66
2024/04/16 02:22:07;;;;;;;3.50;1.80;;;6.30;99.90;;;;;;5448261;26;22623;-66
2024/04/16 02:24:35;;;;;;;6.77;1.77;;;6.30;99.90;;;;;;5449068;26;20292;-66
2024/04/16 02:27:05;;;;;;;2.37;1.87;;;6.30;99.90;;;;;;5445966;26;20603;-66
2024/04/16 02:29:33;;;;;;;5.43;2.53;;;6.20;99.90;;;;;;5446816;26;20300;-66
2024/04/16 02:32:03;;;;;;;6.33;2.63;;;6.20;99.90;;;;;;5455993;25;20306;-66
2024/04/16 02:34:33;;;;;;;6.90;2.90;;;6.20;99.90;;;;;;5461910;26;20232;-65
2024/04/16 02:37:03;;;;;;;8.23;2.83;;;6.20;99.90;;;;;;5455333;25;22108;-66
2024/04/16 02:39:31;;;;;;;14.20;2.87;;;6.20;99.90;;;;;;5447634;26;20269;-66
2024/04/16 02:42:01;;;;;;;5.83;2.63;;;6.30;99.90;;;;;;5465405;25;20264;-66
2024/04/16 02:44:30;;;;;;;8.00;2.80;;;6.30;99.90;;;;;;5456799;26;20292;-66
2024/04/16 02:47:00;;;;;;;9.50;2.60;;;6.30;99.90;;;;;;5449123;26;20236;-65
2024/04/16 02:49:35;;;;;;;6.87;2.70;;;6.30;99.90;;;;;;5462531;26;20640;-66
2024/04/16 02:52:05;;;;;;;4.30;2.83;;;6.30;99.90;;;;;;5463463;25;20643;-66
2024/04/16 02:54:33;;;;;;;10.80;2.87;;;6.30;99.90;;;;;;5449159;26;20256;-65
2024/04/16 02:57:03;;;;;;;5.93;2.70;;;6.30;99.90;;;;;;5459384;26;20256;-66
2024/04/16 02:59:30;;;;;;;6.33;3.00;;;6.40;99.90;;;;;;5444935;25;20260;-66
2024/04/16 03:02:00;;;;;;;10.23;2.87;;;6.40;99.90;;;;;;5448427;26;20285;-65
2024/04/16 03:04:28;;;;;;;7.73;2.80;;;6.40;99.90;;;;;;5450910;26;20292;-66
2024/04/16 03:07:00;;;;;;;5.93;2.50;;;6.50;99.90;;;;;;5464446;26;20299;-65
2024/04/16 03:09:28;;;;;;;7.03;2.50;;;6.50;99.90;;;;;;5463690;25;20256;-66
2024/04/16 03:11:58;;;;;;;10.03;2.73;;;6.50;99.90;;;;;;5448032;26;20260;-66
2024/04/16 03:14:25;;;;;;;7.43;3.27;;;6.50;99.90;;;;;;5454756;25;20257;-66
2024/04/16 03:16:57;;;;;;;11.53;3.20;;;6.50;99.90;;;;;;5455199;25;20284;-66
2024/04/16 03:19:25;;;;;;;9.53;2.87;;;6.60;99.90;;;;;;5454617;26;20241;-66
2024/04/16 03:21:55;;;;;;;8.07;3.10;;;6.60;99.90;;;;;;5457536;26;20299;-65
2024/04/16 03:24:25;;;;;;;7.27;2.83;;;6.60;99.90;;;;;;5452307;26;20311;-66
2024/04/16 03:26:56;;;;;;;9.30;3.00;;;6.60;99.90;;;;;;5451057;26;20253;-65
2024/04/16 03:29:23;;;;;;;5.37;2.80;;;6.60;99.90;;;;;;5460245;26;20292;-65
2024/04/16 03:31:53;;;;;;;11.67;2.83;;;6.60;99.90;;;;;;5457224;26;20241;-65
2024/04/16 03:34:21;;;;;;;8.03;2.43;;;6.60;99.90;;;;;;5464483;26;20237;-65
2024/04/16 03:36:52;;;;;;;5.10;2.50;;;6.60;99.90;;;;;;5461724;26;20604;-66
2024/04/16 03:39:22;;;;;;;9.77;2.90;;;6.70;99.90;;;;;;5463130;25;20296;-65
2024/04/16 03:41:55;;;;;;;6.73;2.40;;;6.70;99.90;;;;;;5467481;26;20640;-65
2024/04/16 03:44:25;;;;;;;12.23;2.80;;;6.70;99.90;;;;;;5455494;25;20253;-65
2024/04/16 03:46:53;;;;;;;8.30;3.13;;;6.70;99.90;;;;;;5455440;25;20271;-65
2024/04/16 03:49:23;;;;;;;12.27;2.67;;;6.70;99.90;;;;;;5458103;26;20301;-65
2024/04/16 03:51:50;;;;;;;15.37;2.73;;;6.80;99.90;;;;;;5455865;26;20268;-65
2024/04/16 03:54:20;;;;;;;7.67;2.67;;;6.80;99.90;;;;;;5449059;26;21097;-65
2024/04/16 03:56:48;;;;;;;11.33;2.50;;;6.80;99.90;;;;;;5448706;25;20317;-66
2024/04/16 03:59:37;;;;;;;5.93;2.70;;;6.80;99.90;;;;;;5444101;26;20305;-66
2024/04/16 04:02:05;;;;;;;8.00;2.57;;;6.90;99.90;;;;;;5441377;26;20254;-65
2024/04/16 04:04:39;;;;;;;6.30;2.63;;;6.90;99.90;;;;;;5462387;26;20244;-65
2024/04/16 04:07:07;;;;;;;10.60;2.63;;;6.90;99.90;;;;;;5455214;26;20389;-66
2024/04/16 04:09:37;;;;;;;7.73;2.57;;;7.00;99.90;;;;;;5453930;26;20840;-66
2024/04/16 04:12:07;;;;;;;8.67;2.50;;;7.00;99.90;;;;;;5458255;26;20301;-65
2024/04/16 04:14:38;;;;;;;6.80;2.57;;;7.00;99.90;;;;;;5457228;25;20300;-65
2024/04/16 04:17:12;;;;;;;6.30;2.20;;;7.00;99.90;;;;;;5453026;26;20273;-65
2024/04/16 04:19:40;;;;;;;6.40;2.33;;;7.00;99.90;;;;;;5460181;26;20731;-64
2024/04/16 04:22:10;;;;;;;10.60;3.23;;;7.00;99.90;;;;;;5454356;26;20233;-65
2024/04/16 04:24:37;;;;;;;9.00;2.83;;;7.10;99.90;;;;;;5451804;26;20357;-65
2024/04/16 04:27:08;;;;;;;8.60;2.80;;;7.10;99.90;;;;;;5445102;25;20257;-65
2024/04/16 04:29:38;;;;;;;10.43;2.53;;;7.10;99.90;;;;;;5459125;26;20257;-65
2024/04/16 04:32:09;;;;;;;6.00;2.50;;;7.10;99.90;;;;;;5456890;26;20252;-65
2024/04/16 04:34:36;;;;;;;6.13;2.50;;;7.10;99.90;;;;;;5454865;26;20540;-65
2024/04/16 04:37:09;;;;;;;11.03;2.40;;;7.20;99.90;;;;;;5461443;26;20318;-65
2024/04/16 04:39:37;;;;;;;11.03;2.50;;;7.20;99.90;;;;;;5456599;26;20256;-65
2024/04/16 04:42:07;;;;;;;11.27;2.57;;;7.20;99.90;;;;;;5449140;26;20257;-65
2024/04/16 04:44:37;;;;;;;5.20;2.73;;;7.20;99.90;;;;;;5455714;26;20272;-65
2024/04/16 04:47:08;;;;;;;7.90;2.80;;;7.20;99.90;;;;;;5456425;25;20253;-65
2024/04/16 04:49:37;;;;;;;7.43;2.77;;;7.20;99.90;;;;;;5447479;26;20766;-65
2024/04/16 04:52:07;;;;;;;5.97;2.27;;;7.20;99.90;;;;;;5446912;26;20257;-65
2024/04/16 04:54:35;;;;;;;7.77;2.40;;;7.20;99.90;;;;;;5458833;26;20261;-65
2024/04/16 04:57:05;;;;;;;16.10;2.77;;;7.20;99.90;;;;;;5460728;25;20260;-65
2024/04/16 04:59:33;;;;;;;6.53;2.10;;;7.20;99.90;;;;;;5447928;25;20291;-65
2024/04/16 05:02:09;;;;;;;8.30;2.40;;;7.20;99.90;;;;;;5452473;25;20252;-64
2024/04/16 05:04:37;;;;;;;5.87;2.47;;;7.30;99.90;;;;;;5449423;26;20238;-65
2024/04/16 05:07:07;;;;;;;17.93;4.40;;;7.30;99.90;;;;;;5444825;26;20680;-65
2024/04/16 05:09:34;;;;;;;8.77;3.50;;;7.30;99.90;;;;;;5449867;26;20265;-65
2024/04/16 05:12:07;;;;;;;9.67;3.30;;;7.30;99.90;;;;;;5455473;26;20379;-65
2024/04/16 05:14:38;;;;;;;10.47;3.00;;;7.30;99.90;;;;;;5455767;26;20595;-64
2024/04/16 05:17:12;;;;;;;6.40;2.80;;;7.30;99.90;;;;;;5452379;25;20344;-65
2024/04/16 05:19:40;;;;;;;7.80;2.63;;;7.30;99.90;;;;;;5452029;26;20237;-65
2024/04/16 05:22:10;;;;;;;7.17;2.57;;;7.30;99.90;;;;;;5456881;26;20256;-64
2024/04/16 05:24:39;;;;;;;9.30;2.63;;;7.30;99.90;;;;;;5442829;26;20588;-64
2024/04/16 05:27:09;;;;;;;8.83;2.13;;;7.30;99.90;;;;;;5449694;26;20311;-65
2024/04/16 05:29:36;;;;;;;4.67;2.30;;;7.30;99.90;;;;;;5446198;26;20262;-65
2024/04/16 05:32:13;;;;;;;6.77;2.70;;;7.30;99.90;;;;;;5434678;26;20281;-65
2024/04/16 05:34:48;;;;;;;12.33;3.47;;;7.30;99.90;;;;;;5457654;26;20238;-64
2024/04/16 05:37:15;;;;;;;6.80;2.37;;;7.40;99.90;;;;;;5456302;26;20236;-65
2024/04/16 05:39:45;;;;;;;12.40;3.10;;;7.40;99.90;;;;;;5448733;26;20781;-65
2024/04/16 05:42:13;;;;;;;5.97;2.30;;;7.40;99.90;;;;;;5446898;26;20609;-65
2024/04/16 05:44:43;;;;;;;7.50;2.50;;;7.50;99.90;;;;;;5447667;25;20651;-65
2024/04/16 05:47:13;;;;;;;8.13;2.40;;;7.50;99.90;;;;;;5448848;26;20287;-65
2024/04/16 05:49:43;;;;;;;7.10;3.43;;;7.50;99.90;;;;;;5456724;25;20245;-65
2024/04/16 05:52:11;;;;;;;7.60;2.73;;;7.50;99.90;;;;;;5452275;26;20228;-65
2024/04/16 05:54:41;;;;;;;8.17;3.00;;;7.50;99.90;;;;;;5446074;26;20253;-65
2024/04/16 05:57:12;;;;;;;10.37;3.70;;;7.50;99.90;;;;;;5447878;26;20321;-65
2024/04/16 05:59:42;;;;;;;6.87;3.03;;;7.60;99.90;;;;;;5442053;26;20250;-65
2024/04/16 06:02:09;;;;;;;9.13;3.33;;;7.60;99.90;;;;;;5451714;26;20264;-65
2024/04/16 06:04:42;;;;;;;7.33;3.30;;;7.60;99.90;;;;;;5457380;26;20245;-65
2024/04/16 06:07:10;;;;;;;8.90;3.10;;;7.60;99.90;;;;;;5458102;26;20346;-65
2024/04/16 06:09:40;;;;;;;11.70;3.20;;;7.60;99.90;;;;;;5457186;26;20268;-65
2024/04/16 06:12:08;;;;;;;10.87;3.27;;;7.60;99.90;;;;;;5468662;25;20256;-65
2024/04/16 06:14:38;;;;;;;9.70;2.73;;;7.70;99.90;;;;;;5455797;26;20291;-65
2024/04/16 06:17:05;;;;;;;12.20;2.73;;;7.70;99.90;;;;;;5457786;26;20609;-65
2024/04/16 06:19:35;;;;;;;4.93;2.47;;;7.80;99.90;;;;;;5451721;26;20240;-65
2024/04/16 06:22:05;;;;;;;6.83;2.33;;;7.80;99.90;;;;;;5451543;25;20299;-65
2024/04/16 06:24:37;;;;;;;8.07;2.30;;;7.80;99.90;;;;;;5454305;26;20645;-65
2024/04/16 06:27:05;;;;;;;8.43;2.70;;;7.90;99.90;;;;;;5455327;26;20321;-65
2024/04/16 06:29:35;;;;;;;8.23;2.40;;;8.00;99.90;;;;;;5455282;25;20253;-65
2024/04/16 06:32:04;;;;;;;10.30;2.70;;;8.00;99.90;;;;;;5460057;26;20704;-65
2024/04/16 06:34:34;;;;;;;6.80;2.60;;;8.10;99.90;;;;;;5459861;26;21276;-65
2024/04/16 06:37:05;;;;;;;9.97;2.60;;;8.10;99.90;;;;;;5460479;26;20279;-65
2024/04/16 06:39:35;;;;;;;9.57;2.50;;;8.20;99.90;;;;;;5449461;26;20279;-65
2024/04/16 06:42:03;;;;;;;5.60;2.20;;;8.30;99.90;;;;;;5454190;26;20361;-65
2024/04/16 06:44:34;;;;;;;7.90;2.40;;;8.40;99.90;;;;;;5453943;25;20248;-65
2024/04/16 06:47:01;;;;;;;3.20;1.90;;;8.60;99.90;;;;;;5452737;25;20588;-66
2024/04/16 06:49:34;;;;;;;10.20;2.33;;;8.70;99.90;;;;;;5457237;26;20232;-65
2024/04/16 06:52:02;;;;;;;7.50;2.40;;;8.70;99.90;;;;;;5456318;26;20295;-66
2024/04/16 06:54:35;;;;;;;8.10;2.10;;;8.80;99.90;;;;;;5455717;25;20651;-65
2024/04/16 06:57:02;;;;;;;6.23;2.27;;;8.80;99.90;;;;;;5452911;25;20312;-65
2024/04/16 06:59:33;;;;;;;3.03;2.17;;;8.90;99.90;;;;;;5456989;26;20290;-65
2024/04/16 07:02:00;;;;;;;4.87;2.20;;;8.90;99.90;;;;;;5445049;26;20295;-65
2024/04/16 07:04:30;;;;;;;4.03;1.90;;;9.00;99.90;;;;;;5449384;26;21888;-66
2024/04/16 07:06:58;;;;;;;5.70;2.20;;;9.10;99.90;;;;;;5462839;26;20300;-64
2024/04/16 07:09:34;;;;;;;5.10;2.00;;;9.20;99.90;;;;;;5452423;26;20296;-64
2024/04/16 07:12:02;;;;;;;5.40;2.20;;;9.20;99.90;;;;;;5451119;26;20294;-64
2024/04/16 07:14:32;;;;;;;4.10;1.87;;;9.20;99.90;;;;;;5456330;26;20261;-65
2024/04/16 07:17:00;;;;;;;9.30;2.00;;;9.30;99.90;;;;;;5458572;26;20475;-64
2024/04/16 07:19:30;;;;;;;2.07;1.93;;;9.30;99.90;;;;;;5456251;26;20272;-64
2024/04/16 07:21:57;;;;;;;5.87;2.10;;;9.30;99.90;;;;;;5457180;26;20261;-63
2024/04/16 07:24:27;;;;;;;7.87;2.20;;;9.50;99.90;;;;;;5450327;26;20314;-65
2024/04/16 07:26:58;;;;;;;9.23;2.20;;;9.80;99.90;;;;;;5459925;26;20580;-65
2024/04/16 07:29:28;;;;;;;6.77;2.57;;;10.00;99.90;;;;;;5449749;26;20253;-65
2024/04/16 07:31:55;;;;;;;9.53;2.10;;;10.10;99.90;;;;;;5450340;26;20241;-64
2024/04/16 07:34:25;;;;;;;7.00;2.10;;;10.10;99.90;;;;;;5458286;26;20286;-65
2024/04/16 07:36:53;;;;;;;7.87;2.17;;;10.00;99.90;;;;;;5457763;26;20839;-65
2024/04/16 07:39:23;;;;;;;7.60;2.33;;;9.80;99.90;;;;;;5464518;26;20307;-65
2024/04/16 07:41:50;;;;;;;5.83;2.30;;;9.60;99.90;;;;;;5459039;25;20252;-64
2024/04/16 07:44:23;;;;;;;12.20;2.83;;;9.60;99.90;;;;;;5463636;25;20263;-65
2024/04/16 07:46:51;;;;;;;7.40;2.20;;;9.50;99.90;;;;;;5459442;26;20692;-65
2024/04/16 07:49:21;;;;;;;6.87;2.27;;;9.50;99.90;;;;;;5466855;26;20241;-65
2024/04/16 07:51:49;;;;;;;6.53;1.97;;;9.60;99.90;;;;;;5469815;25;20596;-65
2024/04/16 07:54:19;;;;;;;5.67;1.90;;;9.60;99.90;;;;;;5460178;26;20307;-65
2024/04/16 07:56:47;;;;;;;6.63;2.33;;;9.50;99.90;;;;;;5458201;26;20321;-66
2024/04/16 07:59:17;;;;;;;6.80;2.00;;;9.60;99.90;;;;;;5465758;25;20599;-65
2024/04/16 08:01:49;;;;;;;5.67;2.03;;;9.60;99.90;;;;;;5459444;25;20743;-64
2024/04/16 08:04:17;;;;;;;4.33;2.00;;;9.60;99.90;;;;;;5457861;26;20344;-65
2024/04/16 08:06:48;;;;;;;4.43;2.00;;;9.60;99.90;;;;;;5458779;26;20251;-65
2024/04/16 08:09:16;;;;;;;11.23;2.30;;;9.60;99.90;;;;;;5449919;26;20261;-65
2024/04/16 08:11:46;;;;;;;3.77;2.10;;;9.60;99.90;;;;;;5458836;26;20260;-64
2024/04/16 08:14:16;;;;;;;6.13;2.10;;;9.60;99.90;;;;;;5454561;25;20341;-65
2024/04/16 08:16:49;;;;;;;4.40;1.83;;;9.70;99.90;;;;;;5452988;26;20676;-65
2024/04/16 08:19:18;;;;;;;6.10;2.40;;;9.70;99.90;;;;;;5454783;26;20327;-64
2024/04/16 08:21:49;;;;;;;3.97;2.00;;;9.80;99.90;;;;;;5458024;26;20277;-65
2024/04/16 08:24:17;;;;;;;5.27;2.17;;;9.90;99.90;;;;;;5454466;26;20261;-65
2024/04/16 08:26:48;;;;;;;6.60;1.90;;;10.00;99.90;;;;;;5458895;26;20289;-66
2024/04/16 08:29:15;;;;;;;5.87;1.90;;;10.20;99.90;;;;;;5462551;26;20282;-65
2024/04/16 08:31:45;;;;;;;4.40;1.80;;;10.30;99.90;;;;;;5453978;25;20249;-65
2024/04/16 08:34:15;;;;;;;6.10;1.70;;;10.40;99.90;;;;;;5461787;26;20619;-65
2024/04/16 08:36:45;;;;;;;6.83;2.53;;;10.50;99.90;;;;;;5458573;26;20257;-65
2024/04/16 08:39:13;;;;;;;6.57;1.70;;;10.60;99.90;;;;;;5459786;26;20722;-65
2024/04/16 08:41:43;;;;;;;6.10;2.10;;;10.80;99.30;;;;;;5453916;26;20261;-66
2024/04/16 08:44:13;;;;;;;2.17;1.70;;;10.70;91.80;;;;;;5461384;25;20320;-65
2024/04/16 08:46:43;;;;;;;6.77;2.00;;;10.50;99.90;;;;;;5461278;25;20245;-65
2024/04/16 08:49:12;;;;;;;2.87;1.70;;;10.40;99.90;;;;;;5459705;26;20267;-65
2024/04/16 08:51:46;;;;;;;5.13;1.70;;;10.40;99.90;;;;;;5456885;26;20990;-66
2024/04/16 08:54:14;;;;;;;5.37;1.67;;;10.60;99.90;;;;;;5454476;26;20258;-66
2024/04/16 08:56:46;;;;;;;3.10;1.53;;;10.80;93.50;;;;;;5458075;26;20252;-65
2024/04/16 08:59:14;;;;;;;4.73;1.80;;;11.00;91.00;;;;;;5456719;26;20845;-65
2024/04/16 09:01:44;;;;;;;3.10;1.80;;;11.30;97.10;;;;;;5462802;26;20293;-66
2024/04/16 09:04:15;;;;;;;9.30;1.70;;;11.40;88.70;;;;;;5451949;26;20316;-65
2024/04/16 09:06:50;;;;;;;1.90;1.37;;;11.30;94.50;;;;;;5467054;25;20291;-67
2024/04/16 09:09:17;;;;;;;2.43;1.60;;;11.20;97.20;;;;;;5460752;25;20299;-66
2024/04/16 09:11:48;;;;;;;4.67;1.67;;;11.10;99.90;;;;;;5450251;26;20261;-66
2024/04/16 09:14:16;;;;;;;2.43;1.80;;;11.00;98.50;;;;;;5456975;26;20245;-66
2024/04/16 09:16:47;;;;;;;3.27;1.60;;;11.10;99.90;;;;;;5465451;26;20711;-66
2024/04/16 09:19:18;;;;;;;4.60;1.53;;;10.80;99.90;;;;;;5459990;26;20232;-66
2024/04/16 09:21:51;;;;;;;4.83;1.77;;;10.60;99.90;;;;;;5457511;26;20252;-65
2024/04/16 09:24:20;;;;;;;5.30;2.00;;;10.40;99.90;;;;;;5455005;26;20249;-65
2024/04/16 09:26:50;;;;;;;6.67;2.23;;;10.30;99.90;;;;;;5447434;25;20265;-65
2024/04/16 09:29:24;;;;;;;6.07;2.17;;;10.10;99.90;;;;;;5455943;26;20339;-65
2024/04/16 09:32:00;;;;;;;4.27;1.57;;;10.00;99.90;;;;;;5450843;26;20275;-65
2024/04/16 09:34:28;;;;;;;4.03;1.70;;;9.70;99.90;;;;;;5457794;26;20240;-65
2024/04/16 09:37:01;;;;;;;2.67;1.70;;;9.70;99.90;;;;;;5461126;26;20260;-65
2024/04/16 09:39:28;;;;;;;1.57;1.40;;;9.70;99.90;;;;;;5455236;26;20299;-65
2024/04/16 09:42:01;;;;;;;3.40;1.50;;;9.80;99.90;;;;;;5488886;26;20310;-65
2024/04/16 09:44:32;;;;;;;4.30;1.53;;;9.70;99.90;;;;;;5458214;25;20320;-65
2024/04/16 09:47:03;;;;;;;4.17;2.10;;;9.70;99.90;;;;;;5467746;26;20729;-65
2024/04/16 09:49:33;;;;;;;4.17;1.70;;;9.60;99.90;;;;;;5465085;26;21900;-65
2024/04/16 09:52:22;;;;;;;2.47;2.07;;;9.80;99.90;;;;;;5463571;26;20276;-66
2024/04/16 09:54:51;;;;;;;7.20;2.03;;;10.20;99.90;;;;;;5460657;26;20303;-65
2024/04/16 09:57:22;;;;;;;2.43;1.80;;;10.60;99.90;;;;;;5467800;25;20264;-65
2024/04/16 09:59:52;;;;;;;4.70;2.00;;;10.90;99.90;;;;;;5457926;25;20292;-66
2024/04/16 10:02:24;;;;;;;4.33;1.77;;;11.20;99.90;;;;;;5464370;26;20335;-65
2024/04/16 10:04:53;;;;;;;4.53;1.90;;;11.50;99.90;;;;;;5448317;26;20269;-65
2024/04/16 10:07:26;;;;;;;3.60;1.70;;;11.70;99.90;;;;;;5451027;26;20301;-65
2024/04/16 10:09:54;;;;;;;5.77;1.70;;;11.80;99.90;;;;;;5459114;26;20253;-65
2024/04/16 10:12:24;;;;;;;10.37;1.80;;;11.60;99.90;;;;;;5458796;26;20276;-66
2024/04/16 10:14:52;;;;;;;5.00;2.00;;;11.30;99.90;;;;;;5457743;26;20944;-64
2024/04/16 10:17:25;;;;;;;3.87;1.90;;;10.80;99.90;;;;;;5451997;26;20257;-64
2024/04/16 10:19:54;;;;;;;3.70;1.87;;;10.60;99.90;;;;;;5458819;26;20241;-65
2024/04/16 10:22:27;;;;;;;4.60;1.80;;;10.40;99.90;;;;;;5457134;26;20280;-64
2024/04/16 10:25:10;;;;;;;7.43;1.80;;;10.60;99.90;;;;;;5455507;26;20267;-65
2024/04/16 10:27:40;;;;;;;3.23;1.60;;;11.20;99.90;;;;;;5466519;25;20291;-65
2024/04/16 10:30:11;;;;;;;2.40;1.40;;;11.80;99.90;;;;;;5457859;25;20682;-65
2024/04/16 10:32:46;;;;;;;5.50;1.50;;;12.60;99.90;;;;;;5462023;25;20253;-65
2024/04/16 10:35:16;;;;;;;3.93;1.40;;;13.60;88.50;;;;;;5451459;26;20252;-65
2024/04/16 10:37:52;;;;;;;2.60;1.50;;;13.90;1.00;;;;;;5459934;26;20659;-65
2024/04/16 10:40:25;;;;;;;5.67;1.50;;;14.00;31.70;;;;;;5458738;26;20235;-66
2024/04/16 10:42:56;;;;;;;5.47;1.50;;;14.80;1.00;;;;;;5466811;25;20369;-66
2024/04/16 10:45:24;;;;;;;2.17;1.60;;;14.70;1.00;;;;;;5461881;26;20298;-65
2024/04/16 10:47:55;;;;;;;2.20;1.50;;;13.90;1.00;;;;;;5456254;26;20316;-65
2024/04/16 10:50:22;;;;;;;5.97;1.60;;;13.00;1.00;;;;;;5459082;25;20277;-65
2024/04/16 10:52:56;;;;;;;5.77;1.77;;;12.40;6.30;;;;;;5459506;26;20264;-65
2024/04/16 10:55:25;;;;;;;6.47;1.83;;;12.10;53.50;;;;;;5464152;26;20234;-66
2024/04/16 10:57:55;;;;;;;2.57;1.90;;;12.00;31.20;;;;;;5466470;26;20299;-66
2024/04/16 11:00:22;;;;;;;4.60;1.83;;;12.10;43.90;;;;;;5461487;26;20268;-66
2024/04/16 11:02:56;;;;;;;3.27;1.90;;;12.40;1.00;;;;;;5456133;26;20313;-66
2024/04/16 11:05:23;;;;;;;3.83;2.17;;;12.30;1.00;;;;;;5462476;25;20288;-65
2024/04/16 11:07:56;;;;;;;3.57;1.70;;;11.80;20.10;;;;;;5442565;25;20233;-65
2024/04/16 11:10:24;;;;;;;2.20;1.57;;;11.40;84.40;;;;;;5457308;26;20233;-64
2024/04/16 11:12:55;;;;;;;2.07;1.70;;;11.10;71.60;;;;;;5458715;26;20618;-65
2024/04/16 11:15:23;;;;;;;2.97;1.83;;;11.00;91.50;;;;;;5456733;26;20265;-65
2024/04/16 11:17:53;;;;;;;5.60;1.90;;;11.20;94.10;;;;;;5464346;26;20259;-65
2024/04/16 11:20:21;;;;;;;4.07;1.53;;;11.40;94.00;;;;;;5440053;26;20266;-65
2024/04/16 11:22:52;;;;;;;2.60;1.60;;;11.60;86.10;;;;;;5455744;26;20237;-65
2024/04/16 11:25:22;;;;;;;4.57;1.80;;;11.80;56.90;;;;;;5447165;26;20233;-65
2024/04/16 11:27:52;;;;;;;7.73;1.97;;;11.80;20.60;;;;;;5460132;26;20342;-65
2024/04/16 11:30:20;;;;;;;5.40;1.80;;;11.60;13.30;;;;;;5457957;26;20915;-65
2024/04/16 11:32:50;;;;;;;2.30;1.60;;;11.60;12.50;;;;;;5464278;26;20303;-65
2024/04/16 11:35:18;;;;;;;5.60;1.83;;;11.60;32.90;;;;;;5453774;26;20391;-65
2024/04/16 11:37:48;;;;;;;8.17;2.10;;;11.60;10.00;;;;;;5449187;26;20308;-64
2024/04/16 11:40:16;;;;;;;4.97;1.73;;;11.60;1.00;;;;;;5462172;26;20236;-65
2024/04/16 11:42:49;;;;;;;3.57;1.63;;;11.60;1.00;;;;;;5459664;26;20259;-65
2024/04/16 11:45:18;;;;;;;3.60;1.60;;;11.70;1.00;;;;;;5460252;25;20260;-65
2024/04/16 11:47:49;;;;;;;5.60;1.80;;;11.80;1.00;;;;;;5459447;26;20263;-66
2024/04/16 11:50:17;;;;;;;4.50;1.80;;;11.90;1.00;;;;;;5454681;26;21920;-64
2024/04/16 11:52:47;;;;;;;5.17;1.67;;;11.70;1.00;;;;;;5459671;26;20261;-63
2024/04/16 11:55:15;;;;;;;4.23;1.50;;;11.00;47.20;;;;;;5462319;26;20820;-64
2024/04/16 11:57:45;;;;;;;1.50;1.40;;;10.60;91.40;;;;;;5454202;26;20295;-64
2024/04/16 12:00:16;;;;;;;3.47;1.80;;;10.30;99.90;;;;;;5456731;26;20320;-64
2024/04/16 12:02:46;;;;;;;1.80;1.70;;;10.30;99.90;;;;;;5457555;26;20261;-64
2024/04/16 12:05:14;;;;;;;2.07;1.80;;;10.50;99.90;;;;;;5448634;26;20249;-64
2024/04/16 12:07:44;;;;;;;3.67;2.00;;;10.90;99.90;;;;;;5451318;26;20238;-63
2024/04/16 12:10:14;;;;;;;5.47;1.67;;;11.40;99.70;;;;;;5453009;26;20331;-64
2024/04/16 12:12:44;;;;;;;4.40;1.80;;;11.60;97.20;;;;;;5453182;26;20338;-64
2024/04/16 12:15:14;;;;;;;6.20;1.43;;;11.60;79.50;;;;;;5465007;25;20260;-65
2024/04/16 12:17:44;;;;;;;2.13;1.37;;;11.20;38.20;;;;;;5449766;26;20340;-64
2024/04/16 12:20:12;;;;;;;1.00;1.00;;;10.70;85.40;;;;;;5454978;26;20673;-64
2024/04/16 12:22:42;;;;;;;1.10;1.10;;;10.30;80.20;;;;;;5452318;26;20280;-64
2024/04/16 12:25:10;;;;;;;0.83;0.83;;;10.10;98.80;;;;;;5452822;26;20233;-65
2024/04/16 12:27:40;;;;;;;1.10;1.10;;;10.20;99.90;;;;;;5459447;26;20620;-65
2024/04/16 12:30:09;;;;;;;3.10;1.40;;;10.50;99.90;;;;;;5455299;26;20344;-66
2024/04/16 12:32:43;;;;;;;2.03;1.10;;;11.00;99.90;;;;;;5456952;26;20279;-65
2024/04/16 12:35:21;;;;;;;4.17;1.40;;;11.30;98.40;;;;;;5462681;26;20759;-65
2024/04/16 12:37:51;;;;;;;4.70;1.60;;;11.60;95.60;;;;;;5453386;26;20610;-65
2024/04/16 12:40:18;;;;;;;2.73;1.40;;;12.10;99.90;;;;;;5460416;26;20275;-66
2024/04/16 12:42:51;;;;;;;2.67;1.40;;;12.50;57.70;;;;;;5454736;26;20728;-66
2024/04/16 12:45:22;;;;;;;4.67;1.87;;;12.90;48.70;;;;;;5455900;26;20294;-66
2024/04/16 12:47:55;;;;;;;3.73;1.57;;;13.00;1.00;;;;;;5460729;26;20366;-66
2024/04/16 12:50:22;;;;;;;4.77;1.43;;;13.10;1.00;;;;;;5468520;26;20282;-66
2024/04/16 12:52:53;;;;;;;2.43;1.60;;;13.20;1.00;;;;;;5459584;26;20259;-65
2024/04/16 12:55:20;;;;;;;3.53;1.50;;;13.20;1.00;;;;;;5451422;26;20229;-66
2024/04/16 12:57:50;;;;;;;5.03;1.47;;;13.00;1.00;;;;;;5459080;26;20365;-66
2024/04/16 13:00:18;;;;;;;2.50;1.30;;;12.70;1.00;;;;;;5463835;26;20327;-64
2024/04/16 13:02:48;;;;;;;3.30;1.20;;;11.80;4.50;;;;;;5456134;26;20257;-65
2024/04/16 13:05:23;;;;;;;1.17;1.10;;;11.30;50.70;;;;;;5460191;25;20730;-65
2024/04/16 13:07:53;;;;;;;2.00;1.20;;;10.90;68.30;;;;;;5448520;25;20238;-65